Time;durP1;ratioP1;P1;durP2;ratioP2;P2;SDS_P1;SDS_P2;PMS_P1;PMS_P2;Temp;Humidity;BMP_temperature;BMP_pressure;BME280_temperature;BME280_humidity;BME280_pressure;Samples;Min_cycle;Max_cycle;Signal;HPM_P1;HPM_P2
2022/06/01 00:00:42;;;;;;;;;;;10.90;99.90;;;;;;5092817;28;19908;-78
2022/06/01 00:03:07;;;;;;;;;;;10.90;99.90;;;;;;5093511;28;20434;-78
2022/06/01 00:05:33;;;;;;;;;;;10.80;99.90;;;;;;5092975;28;19943;-78
2022/06/01 00:07:59;;;;;;;;;;;10.90;99.90;;;;;;5093254;28;20368;-78
2022/06/01 00:10:25;;;;;;;;;;;10.90;99.90;;;;;;5093110;28;19919;-78
2022/06/01 00:12:51;;;;;;;;;;;10.80;99.90;;;;;;5093511;28;19951;-78
2022/06/01 00:15:17;;;;;;;;;;;10.80;99.90;;;;;;5092532;28;19916;-77
2022/06/01 00:17:42;;;;;;;;;;;10.80;99.90;;;;;;5074864;28;19973;-77
2022/06/01 00:20:09;;;;;;;;;;;10.80;99.90;;;;;;5093026;28;19916;-78
2022/06/01 00:22:36;;;;;;;;;;;10.70;99.90;;;;;;5092694;28;19919;-78
2022/06/01 00:25:04;;;;;;;;;;;10.70;99.90;;;;;;5093160;28;20375;-79
2022/06/01 00:27:30;;;;;;;;;;;10.70;99.90;;;;;;5092465;28;20045;-79
2022/06/01 00:29:57;;;;;;;;;;;10.70;99.90;;;;;;5075137;28;19999;-77
2022/06/01 00:32:23;;;;;;;;;;;10.70;99.90;;;;;;5092721;28;19908;-79
2022/06/01 00:34:48;;;;;;;;;;;10.70;99.90;;;;;;5093874;28;19917;-78
2022/06/01 00:37:14;;;;;;;;;;;10.70;99.90;;;;;;5093089;28;20400;-77
2022/06/01 00:39:39;;;;;;;;;;;10.70;99.90;;;;;;5093334;28;19909;-77
2022/06/01 00:42:09;;;;;;;;;;;10.70;99.90;;;;;;5093543;28;19914;-77
2022/06/01 00:44:35;;;;;;;;;;;10.70;99.90;;;;;;5093067;28;19908;-76
2022/06/01 00:47:00;;;;;;;;;;;10.70;99.90;;;;;;5093513;28;19908;-77
2022/06/01 00:49:27;;;;;;;;;;;10.70;99.90;;;;;;5093144;28;19999;-76
2022/06/01 00:51:52;;;;;;;;;;;10.60;99.90;;;;;;5093406;28;20012;-77
2022/06/01 00:54:18;;;;;;;;;;;10.60;99.90;;;;;;5092843;28;20003;-77
2022/06/01 00:56:49;;;;;;;;;;;10.60;99.90;;;;;;5093211;28;19912;-81
2022/06/01 00:59:19;;;;;;;;;;;10.60;99.90;;;;;;5093116;28;19991;-77
2022/06/01 01:01:45;;;;;;;;;;;10.70;99.90;;;;;;5093611;28;19912;-80
2022/06/01 01:04:11;;;;;;;;;;;10.70;99.90;;;;;;5093370;28;19915;-80
2022/06/01 01:06:37;;;;;;;;;;;10.60;99.90;;;;;;5093019;28;19908;-78
2022/06/01 01:09:04;;;;;;;;;;;10.50;99.90;;;;;;5093203;28;19912;-78
2022/06/01 01:11:29;;;;;;;;;;;10.60;99.90;;;;;;5091856;28;19916;-78
2022/06/01 01:13:56;;;;;;;;;;;10.50;99.90;;;;;;5092926;28;19908;-78
2022/06/01 01:16:22;;;;;;;;;;;10.50;99.90;;;;;;5092903;28;20364;-79
2022/06/01 01:18:51;;;;;;;;;;;10.50;99.90;;;;;;5093459;28;19920;-78
2022/06/01 01:21:26;;;;;;;;;;;10.50;99.90;;;;;;5092279;28;19915;-77
2022/06/01 01:24:07;;;;;;;;;;;10.50;99.90;;;;;;5093078;28;19912;-78
2022/06/01 01:26:33;;;;;;;;;;;10.50;99.90;;;;;;5092375;28;19909;-77
2022/06/01 01:28:59;;;;;;;;;;;10.50;99.90;;;;;;5093280;28;19915;-77
2022/06/01 01:31:25;;;;;;;;;;;10.50;99.90;;;;;;5092415;28;19908;-77
2022/06/01 01:33:52;;;;;;;;;;;10.40;99.90;;;;;;5093277;28;19908;-77
2022/06/01 01:36:20;;;;;;;;;;;10.40;99.90;;;;;;5092596;28;19908;-77
2022/06/01 01:38:58;;;;;;;;;;;10.40;99.90;;;;;;5092972;28;19908;-76
2022/06/01 01:41:30;;;;;;;;;;;10.40;99.90;;;;;;5092311;28;19912;-76
2022/06/01 01:44:07;;;;;;;;;;;10.40;99.90;;;;;;5092447;28;19908;-76
2022/06/01 01:46:33;;;;;;;;;;;10.30;99.90;;;;;;5092030;28;19908;-76
2022/06/01 01:48:59;;;;;;;;;;;10.40;99.90;;;;;;5092372;28;20265;-76
2022/06/01 01:51:25;;;;;;;;;;;10.40;99.90;;;;;;5091986;28;19908;-76
2022/06/01 01:53:53;;;;;;;;;;;10.40;99.90;;;;;;5092319;28;20366;-76
2022/06/01 01:56:28;;;;;;;;;;;10.40;99.90;;;;;;5091906;28;19977;-76
2022/06/01 01:58:56;;;;;;;;;;;10.40;99.90;;;;;;5092969;28;19919;-75
2022/06/01 02:01:27;;;;;;;;;;;10.40;99.90;;;;;;5092119;28;19912;-76
2022/06/01 02:03:57;;;;;;;;;;;10.30;99.90;;;;;;5093092;28;19983;-76
2022/06/01 02:06:29;;;;;;;;;;;10.30;99.90;;;;;;5110402;28;19930;-76
2022/06/01 02:09:01;;;;;;;;;;;10.30;99.90;;;;;;5103203;28;19916;-76
2022/06/01 02:14:19;;;;;;;;;;;10.30;99.90;;;;;;5092497;28;20474;-76
2022/06/01 02:16:50;;;;;;;;;;;10.30;99.90;;;;;;5092055;28;19999;-76
2022/06/01 02:19:18;;;;;;;;;;;10.30;99.90;;;;;;5092790;28;19916;-76
2022/06/01 02:21:43;;;;;;;;;;;10.30;99.90;;;;;;5091826;28;19920;-76
2022/06/01 02:24:09;;;;;;;;;;;10.30;99.90;;;;;;5093878;28;19908;-76
2022/06/01 02:26:35;;;;;;;;;;;10.20;99.90;;;;;;5111511;28;19912;-76
2022/06/01 02:29:03;;;;;;;;;;;10.30;99.90;;;;;;5096232;28;19991;-76
2022/06/01 02:31:29;;;;;;;;;;;10.30;99.90;;;;;;5095612;28;19951;-76
2022/06/01 02:33:55;;;;;;;;;;;10.20;99.90;;;;;;5095954;28;20387;-76
2022/06/01 02:36:22;;;;;;;;;;;10.30;99.90;;;;;;5096217;28;19912;-76
2022/06/01 02:38:48;;;;;;;;;;;10.30;99.90;;;;;;5095734;28;19909;-76
2022/06/01 02:43:58;;;;;;;;;;;10.30;99.90;;;;;;5095845;28;19998;-76
2022/06/01 02:46:24;;;;;;;;;;;10.30;99.90;;;;;;5095032;28;20353;-75
2022/06/01 02:48:50;;;;;;;;;;;10.30;99.90;;;;;;5095780;28;19990;-76
2022/06/01 02:51:18;;;;;;;;;;;10.30;99.90;;;;;;5095573;28;19995;-76
2022/06/01 02:53:47;;;;;;;;;;;10.30;99.90;;;;;;5095066;28;19912;-76
2022/06/01 02:56:13;;;;;;;;;;;10.30;99.90;;;;;;5095497;28;19956;-76
2022/06/01 02:58:38;;;;;;;;;;;10.30;99.90;;;;;;5096087;28;19912;-76
2022/06/01 03:01:04;;;;;;;;;;;10.30;99.90;;;;;;5111622;28;20391;-77
2022/06/01 03:03:30;;;;;;;;;;;10.30;99.90;;;;;;5104197;28;19908;-76
2022/06/01 03:05:55;;;;;;;;;;;10.20;99.90;;;;;;5095605;28;19931;-76
2022/06/01 03:08:21;;;;;;;;;;;10.20;99.90;;;;;;5095516;28;20357;-77
2022/06/01 03:10:48;;;;;;;;;;;10.10;99.90;;;;;;5094792;28;19930;-77
2022/06/01 03:13:14;;;;;;;;;;;10.10;99.90;;;;;;5095336;28;19952;-76
2022/06/01 03:15:39;;;;;;;;;;;10.10;99.90;;;;;;5094723;28;19912;-76
2022/06/01 03:18:05;;;;;;;;;;;10.00;99.90;;;;;;5094740;28;20446;-77
2022/06/01 03:20:33;;;;;;;;;;;10.00;99.90;;;;;;5094620;28;19908;-77
2022/06/01 03:22:59;;;;;;;;;;;9.90;99.90;;;;;;5094865;28;20353;-77
2022/06/01 03:25:26;;;;;;;;;;;9.90;99.90;;;;;;5094440;28;19966;-76
2022/06/01 03:27:53;;;;;;;;;;;9.90;99.90;;;;;;5111040;28;20243;-77
2022/06/01 03:30:20;;;;;;;;;;;9.90;99.90;;;;;;5110791;28;20058;-77
2022/06/01 03:32:46;;;;;;;;;;;9.90;99.90;;;;;;5094080;28;19931;-76
2022/06/01 03:35:13;;;;;;;;;;;9.90;99.90;;;;;;5094265;28;19924;-77
2022/06/01 03:37:38;;;;;;;;;;;9.90;99.90;;;;;;5094162;28;19915;-76
2022/06/01 03:40:05;;;;;;;;;;;9.80;99.90;;;;;;5094877;28;19908;-76
2022/06/01 03:42:31;;;;;;;;;;;9.80;99.90;;;;;;5094142;28;19909;-77
2022/06/01 03:47:41;;;;;;;;;;;9.80;99.90;;;;;;5094234;28;20246;-77
2022/06/01 03:50:08;;;;;;;;;;;9.80;99.90;;;;;;5094607;28;19908;-77
2022/06/01 03:52:34;;;;;;;;;;;9.80;99.90;;;;;;5093802;28;19912;-77
2022/06/01 03:54:59;;;;;;;;;;;9.80;99.90;;;;;;5094592;28;19916;-77
2022/06/01 03:57:25;;;;;;;;;;;9.70;99.90;;;;;;5094677;28;19908;-77
2022/06/01 03:59:51;;;;;;;;;;;9.60;99.90;;;;;;5093681;28;19908;-77
2022/06/01 04:02:16;;;;;;;;;;;9.60;99.90;;;;;;5094179;28;19935;-77
2022/06/01 04:04:42;;;;;;;;;;;9.60;99.90;;;;;;5093801;28;19908;-77
2022/06/01 04:07:07;;;;;;;;;;;9.60;99.90;;;;;;5094029;28;19915;-77
2022/06/01 04:09:33;;;;;;;;;;;9.70;99.90;;;;;;5093744;28;19912;-76
2022/06/01 04:11:59;;;;;;;;;;;9.70;99.90;;;;;;5094124;28;19915;-77
2022/06/01 04:14:25;;;;;;;;;;;9.70;99.90;;;;;;5093765;28;19916;-77
2022/06/01 04:16:50;;;;;;;;;;;9.70;99.90;;;;;;5093082;28;19931;-77
2022/06/01 04:19:16;;;;;;;;;;;9.70;99.90;;;;;;5092703;28;20272;-77
2022/06/01 04:21:43;;;;;;;;;;;9.70;99.90;;;;;;5093251;28;19912;-77
2022/06/01 04:24:14;;;;;;;;;;;9.70;99.90;;;;;;5093830;28;19908;-77
2022/06/01 04:26:39;;;;;;;;;;;9.60;99.90;;;;;;5093138;28;20003;-77
2022/06/01 04:29:05;;;;;;;;;;;9.60;99.90;;;;;;5093886;28;20336;-77
2022/06/01 04:31:31;;;;;;;;;;;9.60;99.90;;;;;;5093171;28;19931;-77
2022/06/01 04:33:57;;;;;;;;;;;9.60;99.90;;;;;;5093897;28;20002;-77
2022/06/01 04:36:22;;;;;;;;;;;9.50;99.90;;;;;;5093734;28;20002;-77
2022/06/01 04:38:48;;;;;;;;;;;9.50;99.90;;;;;;5093129;28;19916;-76
2022/06/01 04:41:13;;;;;;;;;;;9.50;99.90;;;;;;5093818;28;20355;-77
2022/06/01 04:43:39;;;;;;;;;;;9.50;99.90;;;;;;5093101;28;19908;-77
2022/06/01 04:46:04;;;;;;;;;;;9.50;99.90;;;;;;5093697;28;19908;-76
2022/06/01 04:48:30;;;;;;;;;;;9.50;99.90;;;;;;5093094;28;19908;-76
2022/06/01 04:50:56;;;;;;;;;;;9.40;99.90;;;;;;5093176;28;19951;-76
2022/06/01 04:53:22;;;;;;;;;;;9.40;99.90;;;;;;5093370;28;19930;-76
2022/06/01 04:55:47;;;;;;;;;;;9.40;99.90;;;;;;5092917;28;20010;-76
2022/06/01 04:58:13;;;;;;;;;;;9.50;99.90;;;;;;5093348;28;19953;-76
2022/06/01 05:00:39;;;;;;;;;;;9.50;99.90;;;;;;5093149;28;19948;-76
2022/06/01 05:03:05;;;;;;;;;;;9.60;99.90;;;;;;5093593;28;19908;-76
2022/06/01 05:05:31;;;;;;;;;;;9.70;99.90;;;;;;5093182;28;19961;-77
2022/06/01 05:07:57;;;;;;;;;;;9.80;99.90;;;;;;5092980;28;20006;-77
2022/06/01 05:10:22;;;;;;;;;;;9.90;99.90;;;;;;5093252;28;19912;-76
2022/06/01 05:12:49;;;;;;;;;;;10.00;99.90;;;;;;5092625;28;19912;-77
2022/06/01 05:15:14;;;;;;;;;;;10.00;99.90;;;;;;5093129;28;19916;-77
2022/06/01 05:17:40;;;;;;;;;;;10.10;99.90;;;;;;5092428;28;20255;-77
2022/06/01 05:20:06;;;;;;;;;;;10.10;99.90;;;;;;5093131;28;20262;-76
2022/06/01 05:22:32;;;;;;;;;;;10.20;99.90;;;;;;5092895;28;20388;-76
2022/06/01 05:24:58;;;;;;;;;;;10.40;99.90;;;;;;5092568;28;19914;-76
2022/06/01 05:27:23;;;;;;;;;;;10.50;99.90;;;;;;5092921;28;19912;-76
2022/06/01 05:29:50;;;;;;;;;;;10.50;99.90;;;;;;5092353;28;19999;-76
2022/06/01 05:32:16;;;;;;;;;;;10.70;99.90;;;;;;5092720;28;19909;-76
2022/06/01 05:34:42;;;;;;;;;;;10.80;99.90;;;;;;5092325;28;20384;-76
2022/06/01 05:37:07;;;;;;;;;;;10.90;99.90;;;;;;5092939;28;20007;-76
2022/06/01 05:39:33;;;;;;;;;;;10.90;99.90;;;;;;5093086;28;19912;-76
2022/06/01 05:41:58;;;;;;;;;;;11.00;99.90;;;;;;5092521;28;20425;-76
2022/06/01 05:44:24;;;;;;;;;;;11.20;99.90;;;;;;5092943;28;20002;-77
2022/06/01 05:46:56;;;;;;;;;;;11.20;99.90;;;;;;5092255;28;19908;-76
2022/06/01 05:49:22;;;;;;;;;;;11.30;99.90;;;;;;5093136;28;19908;-77
2022/06/01 05:51:47;;;;;;;;;;;11.40;99.90;;;;;;5092182;28;20374;-76
2022/06/01 05:54:13;;;;;;;;;;;11.60;99.90;;;;;;5092855;28;20281;-76
2022/06/01 05:56:39;;;;;;;;;;;11.60;99.90;;;;;;5092152;28;19955;-77
2022/06/01 05:59:04;;;;;;;;;;;11.70;99.90;;;;;;5095531;28;20356;-77
2022/06/01 06:01:30;;;;;;;;;;;11.80;99.90;;;;;;5096519;28;19915;-76
2022/06/01 06:03:56;;;;;;;;;;;11.90;99.90;;;;;;5096514;28;19904;-76
2022/06/01 06:06:23;;;;;;;;;;;12.00;99.90;;;;;;5096620;28;19907;-76
2022/06/01 06:08:51;;;;;;;;;;;12.00;99.90;;;;;;5094810;28;19953;-76
2022/06/01 06:11:17;;;;;;;;;;;12.00;99.90;;;;;;5096571;28;20370;-76
2022/06/01 06:13:43;;;;;;;;;;;12.00;99.90;;;;;;5077678;28;19908;-76
2022/06/01 06:16:09;;;;;;;;;;;11.90;99.90;;;;;;5096369;28;19917;-76
2022/06/01 06:18:35;;;;;;;;;;;12.00;99.90;;;;;;5096293;28;20322;-77
2022/06/01 06:21:00;;;;;;;;;;;12.10;99.90;;;;;;5095267;28;20345;-76
2022/06/01 06:23:26;;;;;;;;;;;12.10;99.90;;;;;;5096340;28;19961;-76
2022/06/01 06:25:52;;;;;;;;;;;12.10;99.90;;;;;;5095183;28;20278;-76
2022/06/01 06:28:17;;;;;;;;;;;12.10;99.90;;;;;;5096071;28;19908;-76
2022/06/01 06:30:43;;;;;;;;;;;12.20;99.90;;;;;;5095635;28;19919;-76
2022/06/01 06:33:09;;;;;;;;;;;12.10;99.90;;;;;;5095943;28;20463;-76
2022/06/01 06:35:34;;;;;;;;;;;12.20;99.90;;;;;;5095475;28;19916;-76
2022/06/01 06:38:00;;;;;;;;;;;12.40;99.90;;;;;;5095414;28;19965;-76
2022/06/01 06:40:26;;;;;;;;;;;12.50;99.90;;;;;;5095891;28;20367;-76
2022/06/01 06:42:52;;;;;;;;;;;12.60;99.90;;;;;;5095346;28;20375;-76
2022/06/01 06:45:19;;;;;;;;;;;12.70;99.90;;;;;;5095899;28;20377;-76
2022/06/01 06:47:44;;;;;;;;;;;12.60;99.90;;;;;;5096974;28;19958;-75
2022/06/01 06:50:11;;;;;;;;;;;12.60;99.90;;;;;;5096725;28;19908;-76
2022/06/01 06:52:37;;;;;;;;;;;12.70;99.90;;;;;;5095740;28;19908;-76
2022/06/01 06:55:02;;;;;;;;;;;12.80;99.90;;;;;;5094793;28;20422;-76
2022/06/01 06:57:28;;;;;;;;;;;13.00;99.90;;;;;;5111476;28;19915;-76
2022/06/01 06:59:54;;;;;;;;;;;13.10;99.90;;;;;;5094607;28;20418;-76
2022/06/01 07:02:19;;;;;;;;;;;13.20;99.90;;;;;;5095335;28;19915;-76
2022/06/01 07:04:46;;;;;;;;;;;13.20;99.90;;;;;;5094747;28;20272;-76
2022/06/01 07:07:13;;;;;;;;;;;13.20;99.90;;;;;;5095668;28;20323;-76
2022/06/01 07:09:38;;;;;;;;;;;13.30;99.90;;;;;;5109974;28;19908;-76
2022/06/01 07:12:04;;;;;;;;;;;13.40;99.90;;;;;;5094421;28;20280;-75
2022/06/01 07:14:30;;;;;;;;;;;13.40;99.90;;;;;;5094933;28;19916;-75
2022/06/01 07:16:58;;;;;;;;;;;13.50;99.90;;;;;;5094520;28;19920;-75
2022/06/01 07:19:24;;;;;;;;;;;13.50;99.90;;;;;;5094770;28;19957;-76
2022/06/01 07:21:50;;;;;;;;;;;13.70;99.90;;;;;;5094849;28;19912;-75
2022/06/01 07:24:15;;;;;;;;;;;13.90;99.90;;;;;;5095559;28;19908;-76
2022/06/01 07:26:43;;;;;;;;;;;14.00;99.90;;;;;;5094578;28;19939;-76
2022/06/01 07:29:09;;;;;;;;;;;14.10;99.90;;;;;;5094941;28;19914;-77
2022/06/01 07:31:35;;;;;;;;;;;14.20;99.90;;;;;;5110718;28;20071;-76
2022/06/01 07:34:01;;;;;;;;;;;14.20;99.90;;;;;;5094443;28;19912;-76
2022/06/01 07:36:27;;;;;;;;;;;14.20;99.90;;;;;;5094527;28;19916;-76
2022/06/01 07:44:30;;;;;;;;;;;14.60;99.90;;;;;;5094101;28;19915;-76
2022/06/01 07:46:56;;;;;;;;;;;14.70;99.90;;;;;;5093998;28;19908;-76
2022/06/01 07:49:22;;;;;;;;;;;14.60;99.90;;;;;;5093960;28;19909;-76
2022/06/01 07:51:50;;;;;;;;;;;14.70;99.90;;;;;;5093647;28;20339;-76
2022/06/01 07:54:16;;;;;;;;;;;14.80;99.90;;;;;;5094275;28;19915;-76
2022/06/01 07:56:41;;;;;;;;;;;15.00;99.90;;;;;;5094330;28;19908;-76
2022/06/01 07:59:07;;;;;;;;;;;14.90;99.90;;;;;;5093765;28;19961;-76
2022/06/01 08:01:33;;;;;;;;;;;14.70;99.90;;;;;;5095435;28;19953;-75
2022/06/01 08:04:02;;;;;;;;;;;14.40;99.90;;;;;;5093780;28;20007;-76
2022/06/01 08:06:28;;;;;;;;;;;14.30;99.90;;;;;;5094197;28;19916;-76
2022/06/01 08:08:54;;;;;;;;;;;14.30;99.90;;;;;;5093685;28;19912;-75
2022/06/01 08:11:20;;;;;;;;;;;14.20;99.90;;;;;;5094329;28;20483;-76
2022/06/01 08:13:45;;;;;;;;;;;14.10;99.90;;;;;;5093726;28;19908;-76
2022/06/01 08:16:11;;;;;;;;;;;14.00;99.90;;;;;;5093879;28;20010;-75
2022/06/01 08:18:37;;;;;;;;;;;13.90;99.90;;;;;;5094267;28;19927;-76
2022/06/01 08:21:03;;;;;;;;;;;14.00;99.90;;;;;;5092850;28;20375;-76
2022/06/01 08:23:29;;;;;;;;;;;14.20;99.90;;;;;;5093915;28;19916;-76
2022/06/01 08:25:55;;;;;;;;;;;14.40;99.90;;;;;;5093085;28;19930;-75
2022/06/01 08:28:21;;;;;;;;;;;14.70;99.90;;;;;;5093952;28;20408;-76
2022/06/01 08:30:47;;;;;;;;;;;14.70;99.90;;;;;;5093337;28;19961;-75
2022/06/01 08:33:13;;;;;;;;;;;14.50;99.90;;;;;;5093684;28;19912;-76
2022/06/01 08:35:43;;;;;;;;;;;14.30;99.90;;;;;;5093553;28;20418;-76
2022/06/01 08:38:08;;;;;;;;;;;14.20;99.90;;;;;;5108806;28;19908;-76
2022/06/01 08:40:39;;;;;;;;;;;14.30;99.90;;;;;;5109413;28;19920;-75
2022/06/01 08:43:06;;;;;;;;;;;14.30;99.90;;;;;;5092769;28;20380;-75
2022/06/01 08:45:33;;;;;;;;;;;14.20;99.90;;;;;;5093665;28;19915;-76
2022/06/01 08:47:59;;;;;;;;;;;14.10;99.90;;;;;;5092632;28;19912;-75
2022/06/01 08:50:36;;;;;;;;;;;13.90;99.90;;;;;;5093553;28;19970;-75
2022/06/01 08:53:03;;;;;;;;;;;14.00;99.90;;;;;;5092849;28;19912;-75
2022/06/01 08:55:47;;;;;;;;;;;13.90;99.90;;;;;;5093163;28;19916;-76
2022/06/01 08:58:18;;;;;;;;;;;13.90;99.90;;;;;;5093102;28;19950;-75
2022/06/01 09:00:57;;;;;;;;;;;13.90;99.90;;;;;;5093334;28;19989;-75
2022/06/01 09:03:34;;;;;;;;;;;13.90;99.90;;;;;;5093360;28;19916;-75
2022/06/01 09:06:11;;;;;;;;;;;14.10;99.90;;;;;;5092745;28;19929;-75
2022/06/01 09:08:43;;;;;;;;;;;14.30;99.90;;;;;;5093360;28;20277;-75
2022/06/01 09:11:13;;;;;;;;;;;14.50;99.90;;;;;;5092634;28;20002;-75
2022/06/01 09:13:47;;;;;;;;;;;14.50;99.90;;;;;;5093210;28;19931;-75
2022/06/01 09:16:19;;;;;;;;;;;14.50;99.90;;;;;;5092467;28;19924;-75
2022/06/01 09:18:47;;;;;;;;;;;14.40;99.90;;;;;;5092634;28;19924;-75
2022/06/01 09:24:22;;;;;;;;;;;14.40;99.90;;;;;;5093278;28;19953;-75
2022/06/01 09:26:50;;;;;;;;;;;14.60;99.90;;;;;;5093048;28;19908;-75
2022/06/01 09:29:18;;;;;;;;;;;14.70;99.90;;;;;;5092692;28;19908;-75
2022/06/01 09:31:47;;;;;;;;;;;14.90;99.90;;;;;;5092800;28;19912;-75
2022/06/01 09:34:14;;;;;;;;;;;15.30;99.90;;;;;;5091677;28;20062;-75
2022/06/01 09:37:04;;;;;;;;;;;15.30;99.90;;;;;;5092770;28;20273;-75
2022/06/01 09:39:30;;;;;;;;;;;15.30;99.90;;;;;;5092638;28;20365;-76
2022/06/01 09:42:10;;;;;;;;;;;15.00;99.90;;;;;;5092394;28;19944;-75
2022/06/01 09:44:40;;;;;;;;;;;14.90;99.90;;;;;;5092946;28;19969;-75
2022/06/01 09:47:06;;;;;;;;;;;14.80;99.90;;;;;;5091887;28;20276;-77
2022/06/01 09:49:36;;;;;;;;;;;14.70;99.90;;;;;;5092777;28;19908;-77
2022/06/01 09:52:07;;;;;;;;;;;14.70;99.90;;;;;;5107879;28;20364;-77
2022/06/01 09:54:37;;;;;;;;;;;15.10;99.90;;;;;;5092762;28;20412;-77
2022/06/01 09:57:19;;;;;;;;;;;15.40;99.90;;;;;;5101800;28;19908;-77
2022/06/01 10:08:11;;;;;;;;;;;14.90;99.90;;;;;;5092227;28;19953;-75
2022/06/01 10:10:38;;;;;;;;;;;15.10;99.90;;;;;;5092702;28;20002;-76
2022/06/01 10:13:06;;;;;;;;;;;15.40;99.90;;;;;;5091991;28;19908;-76
2022/06/01 10:15:39;;;;;;;;;;;15.80;99.90;;;;;;5092476;28;19924;-76
2022/06/01 10:18:17;;;;;;;;;;;16.20;99.90;;;;;;5091862;28;20007;-76
2022/06/01 10:20:48;;;;;;;;;;;16.40;99.90;;;;;;5092134;28;20315;-76
2022/06/01 10:23:19;;;;;;;;;;;16.40;99.90;;;;;;5091931;28;20007;-76
2022/06/01 10:25:51;;;;;;;;;;;16.30;99.90;;;;;;5092413;28;19912;-76
2022/06/01 10:28:41;;;;;;;;;;;16.00;99.90;;;;;;5091316;28;20622;-77
2022/06/01 10:31:17;;;;;;;;;;;15.80;99.90;;;;;;5084058;28;20353;-76
2022/06/01 10:33:47;;;;;;;;;;;15.90;99.90;;;;;;5092138;28;20000;-77
2022/06/01 10:36:21;;;;;;;;;;;16.10;99.90;;;;;;5091551;28;19926;-76
2022/06/01 10:39:00;;;;;;;;;;;16.20;99.90;;;;;;5092039;28;19950;-76
2022/06/01 10:41:32;;;;;;;;;;;16.50;99.90;;;;;;5092298;28;19916;-76
2022/06/01 10:44:36;;;;;;;;;;;16.80;99.90;;;;;;5092602;28;19909;-76
2022/06/01 10:47:04;;;;;;;;;;;16.80;99.90;;;;;;5032793;28;19917;-76
2022/06/01 10:49:33;;;;;;;;;;;16.50;99.90;;;;;;5033179;28;19937;-76
2022/06/01 10:52:17;;;;;;;;;;;16.10;99.90;;;;;;5032513;28;19920;-76
2022/06/01 10:54:56;;;;;;;;;;;15.90;99.90;;;;;;5033197;28;19917;-76
2022/06/01 10:57:22;;;;;;;;;;;15.70;99.90;;;;;;5032507;28;19916;-76
2022/06/01 10:59:48;;;;;;;;;;;15.70;99.90;;;;;;5032664;28;19910;-76
2022/06/01 11:02:22;;;;;;;;;;;15.80;99.90;;;;;;5032245;28;19988;-76
2022/06/01 11:04:51;;;;;;;;;;;16.10;99.90;;;;;;5032805;28;19910;-76
2022/06/01 11:07:22;;;;;;;;;;;16.50;99.90;;;;;;5032118;28;20079;-76
2022/06/01 11:10:08;;;;;;;;;;;16.60;99.90;;;;;;5032720;28;19957;-76
2022/06/01 11:13:00;;;;;;;;;;;16.70;99.90;;;;;;5032356;28;20502;-76
2022/06/01 11:15:28;;;;;;;;;;;16.80;99.90;;;;;;5028927;28;19923;-76
2022/06/01 11:17:55;;;;;;;;;;;16.80;99.90;;;;;;5066654;28;20510;-76
2022/06/01 11:20:36;;;;;;;;;;;16.60;99.90;;;;;;5093917;28;19968;-76
2022/06/01 11:23:20;;;;;;;;;;;16.40;99.90;;;;;;5095296;28;19930;-76
2022/06/01 11:26:02;;;;;;;;;;;16.40;99.90;;;;;;5093438;28;19952;-76
2022/06/01 11:28:37;;;;;;;;;;;16.60;99.90;;;;;;5094568;28;19914;-76
2022/06/01 11:31:20;;;;;;;;;;;16.90;99.90;;;;;;5094000;28;20280;-76
2022/06/01 11:33:51;;;;;;;;;;;17.00;99.90;;;;;;5094165;28;19943;-77
2022/06/01 11:36:32;;;;;;;;;;;16.70;99.90;;;;;;5093486;28;20065;-76
2022/06/01 11:39:08;;;;;;;;;;;16.50;99.90;;;;;;5109767;28;20341;-76
2022/06/01 11:41:35;;;;;;;;;;;16.30;99.90;;;;;;5094005;28;19983;-76
2022/06/01 11:44:13;;;;;;;;;;;16.30;99.90;;;;;;5093603;28;19908;-76
2022/06/01 11:46:48;;;;;;;;;;;16.20;99.90;;;;;;5094225;28;19912;-76
2022/06/01 11:49:25;;;;;;;;;;;16.00;99.90;;;;;;5093015;28;20018;-76
2022/06/01 11:51:51;;;;;;;;;;;16.00;99.90;;;;;;5093938;28;19908;-76
2022/06/01 11:54:33;;;;;;;;;;;16.20;99.90;;;;;;5092922;28;20307;-76
2022/06/01 11:56:59;;;;;;;;;;;16.30;99.90;;;;;;5093000;28;19915;-75
2022/06/01 11:59:25;;;;;;;;;;;16.30;99.90;;;;;;5093576;28;20384;-76
2022/06/01 12:01:51;;;;;;;;;;;16.20;99.90;;;;;;5093844;28;19908;-76
2022/06/01 12:04:28;;;;;;;;;;;16.20;99.90;;;;;;5092795;28;20713;-76
2022/06/01 12:06:57;;;;;;;;;;;16.20;99.90;;;;;;5093512;28;19908;-77
2022/06/01 12:09:37;;;;;;;;;;;16.10;99.90;;;;;;5093202;28;19915;-76
2022/06/01 12:12:03;;;;;;;;;;;16.20;99.90;;;;;;5092731;28;20422;-77
2022/06/01 12:14:31;;;;;;;;;;;16.20;99.90;;;;;;5093622;28;19912;-77
2022/06/01 12:17:14;;;;;;;;;;;16.30;99.90;;;;;;5093156;28;20404;-77
2022/06/01 12:19:44;;;;;;;;;;;16.50;99.90;;;;;;5093425;28;20006;-77
2022/06/01 12:28:30;;;;;;;;;;;16.70;99.90;;;;;;5092750;28;19908;-76
2022/06/01 12:30:49;;;;;;;;;;;17.00;99.90;;;;;;5092928;28;19995;-77
2022/06/01 12:33:15;;;;;;;;;;;17.30;99.90;;;;;;5092519;28;19918;-76
2022/06/01 12:35:45;;;;;;;;;;;17.40;99.90;;;;;;5093056;28;19917;-77
2022/06/01 12:38:37;;;;;;;;;;;17.70;99.90;;;;;;5092421;28;19916;-77
2022/06/01 12:41:06;;;;;;;;;;;17.80;99.90;;;;;;5089573;28;19908;-76
2022/06/01 12:43:32;;;;;;;;;;;17.50;99.90;;;;;;5093028;28;20332;-77
2022/06/01 12:45:57;;;;;;;;;;;17.50;99.90;;;;;;5092891;28;20038;-77
2022/06/01 12:48:27;;;;;;;;;;;17.20;99.90;;;;;;5092419;28;19908;-77
2022/06/01 12:50:54;;;;;;;;;;;16.80;99.90;;;;;;5092964;28;20451;-76
2022/06/01 12:53:20;;;;;;;;;;;16.70;99.90;;;;;;5091263;28;19978;-77
2022/06/01 12:55:46;;;;;;;;;;;16.60;99.90;;;;;;5092720;28;19920;-77
2022/06/01 12:58:15;;;;;;;;;;;16.50;99.90;;;;;;5092187;28;19908;-76
2022/06/01 13:00:59;;;;;;;;;;;16.50;99.90;;;;;;5093110;28;19908;-77
2022/06/01 13:03:29;;;;;;;;;;;16.50;99.90;;;;;;5092354;28;19912;-78
2022/06/01 13:05:56;;;;;;;;;;;16.70;99.90;;;;;;5092508;28;20415;-77
2022/06/01 13:08:25;;;;;;;;;;;16.90;99.90;;;;;;5093340;28;20731;-79
2022/06/01 13:10:51;;;;;;;;;;;17.20;99.90;;;;;;5109524;28;19995;-78
2022/06/01 13:13:20;;;;;;;;;;;17.50;99.90;;;;;;5101567;28;20315;-77
2022/06/01 13:15:56;;;;;;;;;;;17.80;99.90;;;;;;5093006;28;19916;-78
2022/06/01 13:18:26;;;;;;;;;;;17.90;99.90;;;;;;5091959;28;19920;-78
2022/06/01 13:20:55;;;;;;;;;;;18.10;99.90;;;;;;5092387;28;19908;-78
2022/06/01 13:23:27;;;;;;;;;;;18.20;99.90;;;;;;5091983;28;19908;-78
2022/06/01 13:25:54;;;;;;;;;;;18.00;99.90;;;;;;5108508;28;20281;-78
2022/06/01 13:28:19;;;;;;;;;;;17.40;99.90;;;;;;5092044;28;19908;-78
2022/06/01 13:30:46;;;;;;;;;;;17.20;99.90;;;;;;5092461;28;19931;-78
2022/06/01 13:33:19;;;;;;;;;;;17.00;99.90;;;;;;5091889;28;20005;-77
2022/06/01 13:35:53;;;;;;;;;;;16.90;99.90;;;;;;5092361;28;19964;-77
2022/06/01 13:38:20;;;;;;;;;;;16.70;99.90;;;;;;5107251;28;19908;-77
2022/06/01 13:40:52;;;;;;;;;;;16.70;99.90;;;;;;5092069;28;19908;-79
2022/06/01 13:43:18;;;;;;;;;;;16.70;99.90;;;;;;5091834;28;19954;-80
2022/06/01 13:45:50;;;;;;;;;;;16.60;99.90;;;;;;5092238;28;20377;-80
2022/06/01 13:48:18;;;;;;;;;;;16.60;99.90;;;;;;5107302;28;20298;-80
2022/06/01 13:50:46;;;;;;;;;;;16.60;99.90;;;;;;5092165;28;19912;-80
2022/06/01 13:53:13;;;;;;;;;;;16.60;99.90;;;;;;5092288;28;20376;-80
2022/06/01 13:55:59;;;;;;;;;;;16.70;99.90;;;;;;5091122;28;19915;-78
2022/06/01 13:58:31;;;;;;;;;;;16.60;99.90;;;;;;5090249;28;19938;-81
2022/06/01 14:01:08;;;;;;;;;;;16.60;99.90;;;;;;5090964;28;19960;-81
2022/06/01 14:03:35;;;;;;;;;;;16.60;99.90;;;;;;5091516;28;19962;-80
2022/06/01 14:06:01;;;;;;;;;;;16.50;99.90;;;;;;5091416;28;19914;-76
2022/06/01 14:08:29;;;;;;;;;;;16.40;99.90;;;;;;5091678;28;19997;-78
2022/06/01 14:10:59;;;;;;;;;;;16.50;99.90;;;;;;5091429;28;20351;-80
2022/06/01 14:13:25;;;;;;;;;;;16.50;99.90;;;;;;5091273;28;20011;-79
2022/06/01 14:15:54;;;;;;;;;;;16.30;99.90;;;;;;5091900;28;20300;-79
2022/06/01 14:18:31;;;;;;;;;;;16.20;99.90;;;;;;5106645;28;19954;-82
2022/06/01 14:20:56;;;;;;;;;;;16.30;99.90;;;;;;5095696;28;20310;-79
2022/06/01 14:23:23;;;;;;;;;;;16.30;99.90;;;;;;5095263;28;19908;-79
2022/06/01 14:28:33;;;;;;;;;;;16.10;99.90;;;;;;5095501;28;19915;-80
2022/06/01 14:31:00;;;;;;;;;;;15.90;99.90;;;;;;5095381;28;19962;-78
2022/06/01 14:33:26;;;;;;;;;;;15.90;99.90;;;;;;5094551;28;19961;-81
2022/06/01 14:35:53;;;;;;;;;;;16.20;99.90;;;;;;5095341;28;20342;-78
2022/06/01 14:38:19;;;;;;;;;;;16.30;99.90;;;;;;5094737;28;19908;-80
2022/06/01 14:40:45;;;;;;;;;;;16.50;99.90;;;;;;5094779;28;20385;-79
2022/06/01 14:43:11;;;;;;;;;;;16.70;99.90;;;;;;5094792;28;19908;-78
2022/06/01 14:45:37;;;;;;;;;;;16.90;99.90;;;;;;5094821;28;19908;-78
2022/06/01 14:48:03;;;;;;;;;;;17.20;99.90;;;;;;5094249;28;20258;-78
2022/06/01 14:50:28;;;;;;;;;;;17.20;99.90;;;;;;5094902;28;19999;-79
2022/06/01 14:52:54;;;;;;;;;;;17.20;99.90;;;;;;5094517;28;20015;-80
2022/06/01 14:55:20;;;;;;;;;;;17.00;99.90;;;;;;5109922;28;19916;-80
2022/06/01 14:57:45;;;;;;;;;;;17.10;99.90;;;;;;5094385;28;19909;-80
2022/06/01 15:00:11;;;;;;;;;;;17.20;99.90;;;;;;5093948;28;19996;-79